Weather at Bandaranaike International Colombo Airport

Public forecast

Using degrees Celsius for public forecast. Weather courtesy of forecast.io.

Current aviation weather report (METAR) for Bandaranaike International Colombo Airport

Report is more than 6 hours old.

Retrieved 2020/10/28 18:10 UTC (7 hours ago):

VCBI 281810Z VRB02KT 7000 SCT018 27/25 Q1011 NOSIG

Aviation forecast (TAF) for Bandaranaike International Colombo Airport

Retrieved 2020-10-29 00:00 UTC (2 hours ago):

TAF VCBI 282300Z 2900/3006 VRB05KT 9999 SCT018 TX31/2908Z TN25/3000Z TEMPO 2900/2903 5000 BR SCT017 FEW020CB BECMG 2903/2905 27007KT BECMG 2911/2913 VRB05KT